Time;durP1;ratioP1;P1;durP2;ratioP2;P2;SDS_P1;SDS_P2;PMS_P1;PMS_P2;Temp;Humidity;BMP_temperature;BMP_pressure;BME280_temperature;BME280_humidity;BME280_pressure;Samples;Min_cycle;Max_cycle;Signal;HPM_P1;HPM_P2
2023/06/21 00:01:31;;;;;;;5.55;2.90;;;19.40;99.90;;;;;;5053087;28;20417;-78
2023/06/21 00:04:00;;;;;;;3.42;0.45;;;19.30;99.90;;;;;;5052985;28;20102;-79
2023/06/21 00:06:29;;;;;;;7.60;3.55;;;19.50;99.90;;;;;;5051765;28;20057;-79
2023/06/21 00:08:58;;;;;;;0.82;0.57;;;19.40;99.90;;;;;;5052661;28;20357;-78
2023/06/21 00:11:24;;;;;;;0.93;0.77;;;19.40;99.90;;;;;;5052745;28;20037;-79
2023/06/21 00:13:54;;;;;;;3.55;2.17;;;19.20;99.90;;;;;;5052660;28;20036;-78
2023/06/21 00:16:20;;;;;;;0.10;0.10;;;19.10;99.90;;;;;;5052947;28;20426;-78
2023/06/21 00:18:46;;;;;;;1.17;1.08;;;19.00;99.90;;;;;;5052759;28;20194;-78
2023/06/21 00:21:13;;;;;;;0.28;0.28;;;19.10;99.90;;;;;;5051616;28;20556;-78
2023/06/21 00:23:41;;;;;;;0.73;0.73;;;19.10;99.90;;;;;;5052760;28;20491;-78
2023/06/21 00:26:07;;;;;;;0.25;0.25;;;19.10;99.90;;;;;;5054388;28;20036;-78
2023/06/21 00:28:33;;;;;;;2.40;2.20;;;19.10;99.90;;;;;;5055894;28;20029;-79
2023/06/21 00:30:58;;;;;;;2.17;1.98;;;19.20;99.90;;;;;;5037694;28;20420;-79
2023/06/21 00:33:25;;;;;;;0.30;0.30;;;19.20;99.90;;;;;;5054790;28;20029;-79
2023/06/21 00:35:51;;;;;;;6.45;2.65;;;19.10;99.90;;;;;;5052300;28;20032;-78
2023/06/21 00:38:18;;;;;;;0.75;0.75;;;19.10;99.90;;;;;;5054267;28;20087;-79
2023/06/21 00:40:43;;;;;;;0.00;0.00;;;19.10;99.90;;;;;;5054090;28;20032;-79
2023/06/21 00:43:09;;;;;;;0.43;0.43;;;19.10;99.90;;;;;;5056801;28;20029;-79
2023/06/21 00:45:45;;;;;;;0.95;0.80;;;19.20;99.90;;;;;;5038007;28;20024;-79
2023/06/21 00:48:11;;;;;;;0.00;0.00;;;19.20;99.90;;;;;;5054390;28;20060;-79
2023/06/21 00:50:40;;;;;;;4.13;0.90;;;19.30;99.90;;;;;;5055257;28;20070;-78
2023/06/21 00:53:08;;;;;;;0.88;0.88;;;19.20;99.90;;;;;;5052152;28;20039;-79
2023/06/21 00:55:34;;;;;;;1.95;1.80;;;19.10;99.90;;;;;;5053826;28;20032;-79
2023/06/21 00:58:02;;;;;;;1.48;0.73;;;19.30;99.90;;;;;;5053897;28;20090;-78
2023/06/21 01:00:28;;;;;;;0.98;0.85;;;19.20;99.90;;;;;;5054404;28;20036;-79
2023/06/21 01:02:58;;;;;;;0.25;0.25;;;19.20;99.90;;;;;;5054546;28;20021;-79
2023/06/21 01:05:25;;;;;;;1.20;1.10;;;19.20;99.90;;;;;;5053301;28;20117;-80
2023/06/21 01:07:51;;;;;;;0.00;0.00;;;19.10;99.90;;;;;;5053775;28;20033;-79
2023/06/21 01:10:34;;;;;;;0.00;0.00;;;18.90;99.90;;;;;;5053903;28;20033;-78
2023/06/21 01:13:29;;;;;;;2.95;1.80;;;19.00;99.90;;;;;;5053295;28;20071;-79
2023/06/21 01:16:18;;;;;;;1.70;1.40;;;19.00;99.90;;;;;;5041209;28;20029;-79
2023/06/21 01:18:48;;;;;;;0.63;0.63;;;19.00;99.90;;;;;;5052180;28;20457;-79
2023/06/21 01:21:19;;;;;;;0.63;0.63;;;18.90;99.90;;;;;;5053403;28;20021;-79
2023/06/21 01:23:52;;;;;;;5.30;3.25;;;18.90;99.90;;;;;;5053599;28;20116;-79
2023/06/21 01:26:46;;;;;;;0.85;0.73;;;18.80;99.90;;;;;;5053734;28;20469;-79
2023/06/21 01:29:21;;;;;;;1.17;0.75;;;18.90;99.90;;;;;;5053707;28;20546;-79
2023/06/21 01:31:50;;;;;;;0.20;0.20;;;19.00;99.90;;;;;;5055874;28;20017;-79
2023/06/21 01:34:17;;;;;;;0.85;0.65;;;19.10;99.90;;;;;;5053713;28;20029;-79
2023/06/21 01:36:43;;;;;;;4.85;3.03;;;19.00;99.90;;;;;;5051845;28;20025;-79
2023/06/21 01:39:09;;;;;;;0.40;0.40;;;18.80;99.90;;;;;;5055714;28;20025;-79
2023/06/21 01:41:36;;;;;;;1.25;0.77;;;18.70;99.90;;;;;;5053878;28;20024;-78
2023/06/21 01:44:09;;;;;;;1.92;1.73;;;18.70;99.90;;;;;;5053249;28;20049;-79
2023/06/21 01:46:36;;;;;;;1.75;1.45;;;18.70;99.90;;;;;;5053083;28;20039;-79
2023/06/21 01:49:06;;;;;;;0.00;0.00;;;18.70;99.90;;;;;;5055330;28;20120;-79
2023/06/21 01:51:38;;;;;;;0.00;0.00;;;18.80;99.90;;;;;;5054220;28;20029;-80
2023/06/21 01:54:04;;;;;;;2.45;2.25;;;19.00;99.90;;;;;;5054877;28;20120;-79
2023/06/21 01:56:30;;;;;;;0.00;0.00;;;19.00;99.90;;;;;;5056108;28;20418;-79
2023/06/21 01:58:56;;;;;;;0.00;0.00;;;19.20;99.90;;;;;;5055330;28;20164;-79
2023/06/21 02:01:26;;;;;;;0.10;0.10;;;19.20;99.90;;;;;;5055933;28;20115;-79
2023/06/21 02:03:56;;;;;;;0.17;0.17;;;19.30;99.90;;;;;;5057576;28;20037;-79
2023/06/21 02:06:28;;;;;;;0.00;0.00;;;19.40;99.90;;;;;;5040407;28;20025;-78
2023/06/21 02:08:54;;;;;;;0.25;0.25;;;19.40;99.90;;;;;;5055802;28;20037;-79
2023/06/21 02:11:22;;;;;;;0.00;0.00;;;19.40;99.90;;;;;;5054392;28;20021;-79
2023/06/21 02:13:48;;;;;;;0.25;0.25;;;19.50;99.90;;;;;;5054875;28;20091;-79
2023/06/21 02:16:17;;;;;;;0.47;0.47;;;19.50;99.90;;;;;;5058437;28;20081;-79
2023/06/21 02:18:44;;;;;;;0.03;0.03;;;19.50;99.90;;;;;;5077214;28;20536;-79
2023/06/21 02:21:15;;;;;;;2.13;2.00;;;19.40;99.90;;;;;;5076886;28;20025;-79
2023/06/21 02:23:41;;;;;;;0.03;0.03;;;19.20;99.90;;;;;;5076047;28;20020;-79
2023/06/21 02:26:10;;;;;;;0.70;0.70;;;19.30;99.90;;;;;;5075605;28;20469;-79
2023/06/21 02:28:36;;;;;;;2.42;1.77;;;19.20;99.90;;;;;;5076859;28;20074;-79
2023/06/21 02:31:02;;;;;;;2.90;1.85;;;19.30;99.90;;;;;;5074276;28;20028;-79
2023/06/21 02:33:27;;;;;;;0.10;0.10;;;19.30;99.90;;;;;;5076622;28;20036;-80
2023/06/21 02:35:53;;;;;;;0.40;0.40;;;19.40;99.90;;;;;;5075377;28;20037;-79
2023/06/21 02:38:19;;;;;;;1.77;0.93;;;19.50;99.90;;;;;;5049021;28;20097;-79
2023/06/21 02:40:45;;;;;;;2.42;1.50;;;19.40;99.90;;;;;;5077174;28;20029;-79
2023/06/21 02:43:11;;;;;;;3.08;1.02;;;19.30;99.90;;;;;;5076257;28;20485;-79
2023/06/21 02:45:38;;;;;;;0.10;0.10;;;19.10;99.90;;;;;;5075992;28;20048;-79
2023/06/21 02:48:04;;;;;;;3.63;2.08;;;19.30;99.90;;;;;;5075809;28;20089;-79
2023/06/21 02:50:30;;;;;;;0.30;0.30;;;19.30;99.90;;;;;;5074888;28;20016;-79
2023/06/21 02:52:56;;;;;;;1.00;0.93;;;19.50;99.90;;;;;;5076480;28;20020;-79
2023/06/21 02:55:22;;;;;;;4.45;1.80;;;19.50;99.90;;;;;;5075241;28;20120;-79
2023/06/21 02:57:48;;;;;;;0.00;0.00;;;19.50;99.90;;;;;;5075071;28;20056;-79
2023/06/21 03:00:33;;;;;;;7.28;2.95;;;19.50;99.90;;;;;;5075392;28;20082;-79
2023/06/21 03:03:01;;;;;;;0.05;0.05;;;19.50;99.90;;;;;;5075715;28;20025;-79
2023/06/21 03:05:33;;;;;;;0.00;0.00;;;19.40;99.90;;;;;;5075486;28;20024;-79
2023/06/21 03:08:00;;;;;;;;;;;19.40;99.90;;;;;;5076493;28;20028;-78
2023/06/21 03:10:26;;;;;;;0.00;0.00;;;19.50;99.90;;;;;;5078653;28;19931;-80
2023/06/21 03:12:53;;;;;;;0.00;0.00;;;19.20;99.90;;;;;;5078089;28;20024;-79
2023/06/21 03:15:22;;;;;;;0.93;0.57;;;19.40;99.90;;;;;;5075379;28;20047;-79
2023/06/21 03:17:49;;;;;;;0.98;0.93;;;19.40;99.90;;;;;;5075283;28;20038;-79
2023/06/21 03:20:16;;;;;;;0.00;0.00;;;19.40;99.90;;;;;;5058292;28;20111;-77
2023/06/21 03:22:44;;;;;;;1.73;0.80;;;19.40;99.90;;;;;;5076213;28;20073;-78
2023/06/21 03:25:12;;;;;;;0.22;0.22;;;19.50;99.90;;;;;;5075749;28;20028;-77
2023/06/21 03:27:39;;;;;;;0.10;0.10;;;19.40;99.90;;;;;;5075835;28;20020;-77
2023/06/21 03:30:11;;;;;;;0.00;0.00;;;19.50;99.90;;;;;;5076607;28;20048;-78
2023/06/21 03:32:46;;;;;;;0.00;0.00;;;19.60;99.90;;;;;;5075888;28;20392;-77
2023/06/21 03:35:18;;;;;;;0.08;0.08;;;19.50;99.90;;;;;;5060661;28;20127;-78
2023/06/21 03:37:47;;;;;;;0.13;0.13;;;19.40;99.90;;;;;;5076977;28;20054;-78
2023/06/21 03:40:14;;;;;;;0.00;0.00;;;19.50;99.90;;;;;;5077871;28;20066;-78
2023/06/21 03:42:45;;;;;;;0.45;0.45;;;19.50;99.90;;;;;;5074916;28;20123;-78
2023/06/21 03:45:12;;;;;;;;;;;19.50;99.90;;;;;;5068216;28;20060;-78
2023/06/21 03:47:40;;;;;;;0.10;0.10;;;19.50;99.90;;;;;;5078947;28;19916;-78
2023/06/21 03:50:07;;;;;;;0.43;0.43;;;19.70;99.90;;;;;;5077980;28;20512;-78
2023/06/21 03:52:34;;;;;;;0.08;0.08;;;19.80;99.90;;;;;;5059457;28;20346;-78
2023/06/21 03:55:01;;;;;;;0.00;0.00;;;19.50;99.90;;;;;;5076892;28;20104;-78
2023/06/21 03:57:27;;;;;;;0.00;0.00;;;19.60;99.90;;;;;;5078983;28;20056;-78
2023/06/21 03:59:54;;;;;;;0.13;0.13;;;19.70;99.90;;;;;;5079981;28;20028;-78
2023/06/21 04:02:21;;;;;;;0.00;0.00;;;19.70;99.90;;;;;;5078424;28;20078;-78
2023/06/21 04:04:48;;;;;;;0.00;0.00;;;19.80;99.90;;;;;;5077608;28;20071;-78
2023/06/21 04:07:13;;;;;;;0.10;0.10;;;20.00;99.90;;;;;;5078045;28;20389;-78
2023/06/21 04:09:40;;;;;;;0.45;0.45;;;19.90;99.90;;;;;;5075561;28;20020;-78
2023/06/21 04:12:06;;;;;;;0.15;0.15;;;19.80;99.90;;;;;;5074752;28;20147;-78
2023/06/21 04:14:32;;;;;;;0.38;0.38;;;19.50;99.90;;;;;;5073998;28;20066;-77
2023/06/21 04:16:59;;;;;;;0.55;0.55;;;19.50;99.90;;;;;;5075078;28;20024;-78
2023/06/21 04:19:26;;;;;;;1.02;0.75;;;19.60;99.90;;;;;;5075092;28;20033;-77
2023/06/21 04:21:52;;;;;;;1.75;1.13;;;19.50;99.90;;;;;;5074348;28;20487;-77
2023/06/21 04:24:17;;;;;;;2.15;1.75;;;19.50;99.90;;;;;;5073571;28;20054;-76
2023/06/21 04:26:43;;;;;;;1.77;1.67;;;19.60;99.90;;;;;;5073438;28;20031;-77
2023/06/21 04:29:09;;;;;;;0.40;0.40;;;19.50;99.90;;;;;;5071738;28;20029;-78
2023/06/21 04:31:37;;;;;;;0.22;0.22;;;19.50;99.90;;;;;;5054983;28;20024;-78
2023/06/21 04:34:06;;;;;;;0.00;0.00;;;19.70;99.90;;;;;;5072671;28;20033;-78
2023/06/21 04:36:32;;;;;;;0.05;0.05;;;19.80;99.90;;;;;;5071528;28;20028;-77
2023/06/21 04:38:57;;;;;;;0.77;0.68;;;20.00;99.90;;;;;;5072674;28;20542;-77
2023/06/21 04:41:23;;;;;;;1.60;0.90;;;19.90;99.90;;;;;;5072661;28;20049;-77
2023/06/21 04:43:49;;;;;;;0.80;0.80;;;19.80;99.90;;;;;;5072626;28;20119;-77
2023/06/21 04:46:17;;;;;;;0.93;0.40;;;19.90;99.90;;;;;;5054300;28;20153;-79
2023/06/21 04:48:46;;;;;;;0.57;0.57;;;19.90;99.90;;;;;;5071166;28;20358;-77
2023/06/21 04:51:15;;;;;;;0.65;0.65;;;20.20;99.90;;;;;;5072539;28;20031;-76
2023/06/21 04:53:45;;;;;;;2.95;1.95;;;20.00;99.90;;;;;;5072630;28;20028;-77
2023/06/21 04:56:14;;;;;;;0.65;0.38;;;19.80;99.90;;;;;;5061482;28;20378;-77
2023/06/21 04:58:40;;;;;;;1.58;1.40;;;19.60;99.90;;;;;;5072966;28;20020;-78
2023/06/21 05:01:07;;;;;;;1.65;1.55;;;19.70;99.90;;;;;;5072426;28;20503;-77
2023/06/21 05:03:32;;;;;;;0.00;0.00;;;19.30;99.90;;;;;;5072744;28;20021;-77
2023/06/21 05:06:02;;;;;;;2.00;1.23;;;19.50;99.90;;;;;;5072854;28;20126;-77
2023/06/21 05:08:28;;;;;;;4.80;3.05;;;19.60;99.90;;;;;;5071659;28;20089;-77
2023/06/21 05:10:54;;;;;;;1.95;1.85;;;19.40;99.90;;;;;;5072333;28;20071;-78
2023/06/21 05:13:20;;;;;;;0.00;0.00;;;19.40;99.90;;;;;;5072241;28;20064;-79
2023/06/21 05:15:45;;;;;;;1.13;0.47;;;19.30;99.90;;;;;;5065707;28;20770;-78
2023/06/21 05:18:11;;;;;;;0.10;0.10;;;19.30;99.90;;;;;;5043984;28;20021;-79
2023/06/21 05:20:37;;;;;;;6.90;2.65;;;19.10;99.90;;;;;;5051086;28;20025;-77
2023/06/21 05:23:03;;;;;;;5.25;4.38;;;18.90;99.90;;;;;;5051489;28;20052;-78
2023/06/21 05:25:30;;;;;;;0.00;0.00;;;19.00;99.90;;;;;;5058156;28;20029;-78
2023/06/21 05:27:55;;;;;;;1.00;1.00;;;19.00;99.90;;;;;;5070388;28;20031;-79
2023/06/21 05:30:21;;;;;;;0.10;0.10;;;19.50;99.90;;;;;;5061872;28;20025;-77
2023/06/21 05:32:47;;;;;;;1.23;0.95;;;19.80;99.90;;;;;;5061730;28;20066;-78
2023/06/21 05:35:13;;;;;;;3.90;1.77;;;19.70;99.90;;;;;;5063909;28;20378;-77
2023/06/21 05:37:39;;;;;;;1.92;1.60;;;19.40;99.90;;;;;;5068744;28;20036;-80
2023/06/21 05:40:08;;;;;;;2.17;1.85;;;19.60;99.90;;;;;;5069548;28;20144;-81
2023/06/21 05:42:34;;;;;;;8.15;4.15;;;19.60;99.90;;;;;;5062756;28;20029;-76
2023/06/21 05:44:59;;;;;;;1.88;1.70;;;19.40;99.90;;;;;;5064496;28;20031;-77
2023/06/21 05:47:25;;;;;;;2.20;1.63;;;19.60;99.90;;;;;;5067312;28;20025;-77
2023/06/21 05:49:51;;;;;;;1.02;0.70;;;19.70;99.90;;;;;;5071362;28;20032;-76
2023/06/21 05:52:17;;;;;;;0.73;0.73;;;19.90;99.90;;;;;;5074901;28;20397;-77
2023/06/21 05:54:44;;;;;;;0.00;0.00;;;20.00;99.90;;;;;;5062591;28;20036;-76
2023/06/21 05:57:11;;;;;;;1.33;1.23;;;20.20;99.90;;;;;;5063113;28;20020;-77
2023/06/21 05:59:37;;;;;;;3.10;1.75;;;19.90;99.90;;;;;;5065590;28;20028;-77
2023/06/21 06:02:04;;;;;;;2.60;0.88;;;19.50;99.90;;;;;;5072757;28;20033;-77
2023/06/21 06:04:30;;;;;;;1.85;1.42;;;19.50;99.90;;;;;;5061480;28;20025;-77
2023/06/21 06:06:56;;;;;;;0.50;0.50;;;19.50;99.90;;;;;;5062989;28;20031;-76
2023/06/21 06:09:23;;;;;;;0.50;0.40;;;19.70;99.90;;;;;;5062798;28;20262;-80
2023/06/21 06:11:50;;;;;;;2.30;0.95;;;19.50;99.90;;;;;;5069621;28;20065;-81
2023/06/21 06:14:16;;;;;;;0.57;0.55;;;19.90;99.90;;;;;;5073618;28;20098;-80
2023/06/21 06:16:42;;;;;;;1.35;1.25;;;19.80;99.90;;;;;;5053144;28;20482;-81
2023/06/21 06:19:07;;;;;;;0.77;0.77;;;19.60;99.90;;;;;;5057477;28;20064;-78
2023/06/21 06:21:33;;;;;;;0.00;0.00;;;19.40;99.90;;;;;;5053956;28;20021;-80
2023/06/21 06:23:59;;;;;;;0.32;0.32;;;19.70;99.90;;;;;;5058658;28;20401;-81
2023/06/21 06:26:26;;;;;;;1.50;1.35;;;19.90;99.90;;;;;;5072963;28;20025;-81
2023/06/21 06:28:52;;;;;;;0.63;0.57;;;20.20;99.90;;;;;;5076442;28;20028;-80
2023/06/21 06:31:20;;;;;;;1.90;0.50;;;20.30;99.90;;;;;;5059970;28;20036;-83
2023/06/21 06:33:46;;;;;;;0.85;0.85;;;19.80;99.90;;;;;;5065129;28;20033;-77
2023/06/21 06:36:12;;;;;;;2.40;1.13;;;20.00;99.90;;;;;;5063785;28;20028;-80
2023/06/21 06:38:38;;;;;;;2.35;1.42;;;19.90;99.90;;;;;;5075410;28;20025;-76
2023/06/21 06:41:04;;;;;;;1.25;1.20;;;19.90;99.90;;;;;;5077059;28;20028;-80
2023/06/21 06:43:31;;;;;;;1.67;1.35;;;19.80;99.90;;;;;;5062102;28;20403;-83
2023/06/21 06:45:57;;;;;;;1.92;0.35;;;19.80;99.90;;;;;;5068010;28;20059;-78
2023/06/21 06:48:24;;;;;;;1.88;0.80;;;19.70;99.90;;;;;;5068629;28;20059;-78
2023/06/21 06:50:50;;;;;;;3.83;1.65;;;20.10;99.90;;;;;;5075276;28;20040;-77
2023/06/21 06:53:15;;;;;;;0.30;0.30;;;20.00;99.90;;;;;;5073571;28;20135;-83
2023/06/21 06:55:41;;;;;;;0.40;0.40;;;19.80;99.90;;;;;;5059930;28;20370;-84
2023/06/21 06:58:07;;;;;;;2.83;1.85;;;20.00;99.90;;;;;;5064972;28;20017;-76
2023/06/21 07:00:33;;;;;;;6.60;0.85;;;20.00;99.90;;;;;;5070226;28;20489;-78
2023/06/21 07:02:58;;;;;;;0.00;0.00;;;20.20;99.90;;;;;;5072258;28;20032;-79
2023/06/21 07:05:25;;;;;;;0.00;0.00;;;20.60;99.90;;;;;;5056597;28;20104;-77
2023/06/21 07:07:50;;;;;;;0.13;0.13;;;20.80;99.90;;;;;;5059009;28;20021;-76
2023/06/21 07:10:16;;;;;;;1.55;1.27;;;20.60;99.90;;;;;;5066334;28;20103;-76
2023/06/21 07:12:42;;;;;;;2.58;1.45;;;20.40;99.90;;;;;;5069888;28;20492;-76
2023/06/21 07:15:08;;;;;;;3.20;0.88;;;20.40;99.90;;;;;;5070154;28;20064;-76
2023/06/21 07:17:34;;;;;;;0.00;0.00;;;20.30;99.90;;;;;;5056701;28;20017;-76
2023/06/21 07:20:00;;;;;;;0.30;0.30;;;20.40;99.90;;;;;;5061077;28;20363;-81
2023/06/21 07:22:26;;;;;;;0.60;0.55;;;20.30;99.90;;;;;;5067974;28;20021;-77
2023/06/21 07:24:52;;;;;;;0.52;0.47;;;20.30;99.90;;;;;;5069973;28;20431;-76
2023/06/21 07:27:17;;;;;;;4.72;0.90;;;20.80;99.90;;;;;;5066918;28;20031;-76
2023/06/21 07:29:43;;;;;;;2.50;0.75;;;21.20;99.90;;;;;;5066240;28;20055;-77
2023/06/21 07:32:09;;;;;;;0.10;0.10;;;21.40;99.90;;;;;;5055496;28;20017;-77
2023/06/21 07:34:35;;;;;;;0.65;0.65;;;21.30;99.90;;;;;;5063831;28;20491;-75
2023/06/21 07:37:01;;;;;;;0.63;0.52;;;21.00;99.90;;;;;;5064415;28;20469;-76
2023/06/21 07:39:26;;;;;;;0.10;0.10;;;21.10;99.90;;;;;;5067740;28;20025;-78
2023/06/21 07:41:54;;;;;;;1.23;0.88;;;21.40;99.90;;;;;;5064391;28;20029;-76
2023/06/21 07:44:20;;;;;;;3.40;1.77;;;21.20;99.90;;;;;;5058374;28;20052;-75
2023/06/21 07:46:51;;;;;;;0.52;0.38;;;21.20;99.90;;;;;;5063487;28;20021;-75
2023/06/21 07:49:17;;;;;;;1.05;1.02;;;21.40;99.90;;;;;;5064656;28;20033;-76
2023/06/21 07:51:43;;;;;;;2.17;0.50;;;21.40;99.90;;;;;;5071596;28;20017;-76
2023/06/21 07:54:10;;;;;;;0.25;0.25;;;21.60;99.90;;;;;;5061855;28;20051;-77
2023/06/21 07:56:36;;;;;;;0.28;0.20;;;21.60;99.90;;;;;;5060636;28;20796;-77
2023/06/21 07:59:02;;;;;;;0.55;0.55;;;21.70;99.90;;;;;;5064285;28;20040;-78
2023/06/21 08:01:27;;;;;;;2.95;1.70;;;21.60;99.90;;;;;;5067437;28;20028;-78
2023/06/21 08:03:54;;;;;;;3.95;0.95;;;21.90;99.90;;;;;;5064043;28;20447;-77
2023/06/21 08:06:20;;;;;;;0.90;0.85;;;21.40;99.90;;;;;;5056075;28;20068;-77
2023/06/21 08:08:46;;;;;;;2.17;1.20;;;21.50;99.90;;;;;;5063476;28;20473;-76
2023/06/21 08:11:11;;;;;;;2.38;1.70;;;21.90;99.90;;;;;;5063658;28;20103;-76
2023/06/21 08:13:37;;;;;;;0.00;0.00;;;21.70;99.90;;;;;;5070021;28;20116;-76
2023/06/21 08:16:03;;;;;;;0.40;0.32;;;22.10;99.90;;;;;;5062253;28;20121;-75
2023/06/21 08:18:29;;;;;;;0.00;0.00;;;22.10;99.90;;;;;;5058993;28;20465;-76
2023/06/21 08:20:54;;;;;;;0.88;0.70;;;22.10;99.90;;;;;;5046064;28;20024;-75
2023/06/21 08:23:20;;;;;;;0.47;0.47;;;22.10;99.90;;;;;;5063898;28;20068;-75
2023/06/21 08:25:47;;;;;;;3.95;2.45;;;22.30;99.90;;;;;;5067450;28;20020;-76
2023/06/21 08:28:13;;;;;;;4.20;1.27;;;22.10;99.90;;;;;;5070255;28;20484;-76
2023/06/21 08:30:38;;;;;;;2.78;1.08;;;21.80;99.90;;;;;;5058668;28;20104;-75
2023/06/21 08:33:04;;;;;;;0.10;0.10;;;21.80;99.90;;;;;;5059416;28;20492;-75
2023/06/21 08:35:30;;;;;;;1.95;1.58;;;22.00;99.90;;;;;;5060080;28;20029;-75
2023/06/21 08:37:58;;;;;;;0.05;0.05;;;21.90;99.90;;;;;;5067374;28;20032;-78
2023/06/21 08:40:26;;;;;;;3.08;1.48;;;21.60;99.90;;;;;;5067362;28;20025;-75
2023/06/21 08:42:53;;;;;;;0.25;0.25;;;22.10;99.90;;;;;;5059226;28;20055;-75
2023/06/21 08:45:19;;;;;;;0.00;0.00;;;22.10;99.90;;;;;;5058504;28;20481;-76
2023/06/21 08:47:47;;;;;;;0.10;0.10;;;22.40;99.90;;;;;;5062436;28;20029;-74
2023/06/21 08:50:16;;;;;;;1.45;1.10;;;22.40;99.90;;;;;;5069118;28;20056;-75
2023/06/21 08:52:44;;;;;;;0.70;0.60;;;21.80;99.90;;;;;;5071219;28;20071;-74
2023/06/21 08:55:11;;;;;;;0.47;0.30;;;22.30;99.90;;;;;;5057559;28;20043;-75
2023/06/21 08:57:53;;;;;;;0.50;0.50;;;23.00;99.90;;;;;;5058879;28;20104;-75
2023/06/21 09:00:27;;;;;;;3.50;1.60;;;23.60;99.90;;;;;;5050707;28;20037;-75
2023/06/21 09:03:03;;;;;;;0.20;0.20;;;23.10;99.90;;;;;;5072132;28;20043;-76
2023/06/21 09:05:52;;;;;;;0.88;0.75;;;23.20;99.90;;;;;;5046999;28;20121;-75
2023/06/21 09:08:19;;;;;;;1.30;0.85;;;23.10;99.90;;;;;;5045911;28;20017;-75
2023/06/21 09:10:48;;;;;;;0.22;0.22;;;22.60;99.90;;;;;;5070004;28;20035;-77
2023/06/21 09:13:14;;;;;;;0.00;0.00;;;22.90;99.90;;;;;;5070460;28;20175;-76
2023/06/21 09:15:41;;;;;;;0.45;0.45;;;23.30;99.90;;;;;;5068881;28;20440;-75
2023/06/21 09:18:07;;;;;;;0.10;0.10;;;23.80;99.90;;;;;;5057682;28;20025;-75
2023/06/21 09:20:33;;;;;;;0.93;0.63;;;23.90;99.90;;;;;;5053414;28;20107;-75
2023/06/21 09:23:00;;;;;;;0.03;0.03;;;24.00;99.90;;;;;;5069335;28;20029;-75
2023/06/21 09:25:27;;;;;;;0.75;0.50;;;23.70;99.90;;;;;;5069044;28;20017;-74
2023/06/21 09:27:53;;;;;;;0.00;0.00;;;23.90;99.90;;;;;;5073333;28;20051;-80
2023/06/21 09:30:20;;;;;;;0.85;0.75;;;23.90;99.90;;;;;;5048482;28;20473;-75
2023/06/21 09:32:46;;;;;;;0.22;0.17;;;24.20;99.90;;;;;;5061841;28;20020;-75
2023/06/21 09:35:13;;;;;;;2.65;1.75;;;24.70;99.90;;;;;;5063610;28;20123;-74
2023/06/21 09:37:40;;;;;;;8.65;0.93;;;24.60;99.90;;;;;;5068426;28;20032;-75
2023/06/21 09:40:07;;;;;;;0.00;0.00;;;24.20;99.90;;;;;;5073860;28;20024;-75
2023/06/21 09:42:38;;;;;;;0.20;0.20;;;24.60;99.90;;;;;;5060846;28;20036;-75
2023/06/21 09:45:18;;;;;;;0.10;0.00;;;24.80;99.90;;;;;;5063374;28;20469;-75
2023/06/21 09:47:44;;;;;;;3.85;0.65;;;25.20;99.90;;;;;;5064720;28;20132;-75
2023/06/21 09:50:11;;;;;;;0.10;0.10;;;25.40;99.90;;;;;;5053796;28;20020;-75
2023/06/21 09:52:44;;;;;;;0.25;0.25;;;24.80;99.90;;;;;;5074604;28;20102;-75
2023/06/21 09:55:16;;;;;;;0.75;0.22;;;24.70;99.90;;;;;;5060505;28;20041;-75
2023/06/21 09:57:43;;;;;;;2.50;0.20;;;24.60;99.90;;;;;;5040810;28;20025;-75
2023/06/21 10:00:10;;;;;;;0.00;0.00;;;25.00;99.90;;;;;;5051120;28;20115;-74
2023/06/21 10:02:40;;;;;;;0.30;0.30;;;24.90;99.90;;;;;;5072911;28;20181;-74
2023/06/21 10:05:15;;;;;;;0.00;0.00;;;24.90;99.90;;;;;;5058483;28;20024;-75
2023/06/21 10:07:44;;;;;;;0.35;0.13;;;25.30;99.90;;;;;;5060161;28;20021;-75
2023/06/21 10:10:11;;;;;;;0.28;0.28;;;24.80;99.90;;;;;;5061038;28;20021;-75
2023/06/21 10:12:37;;;;;;;0.80;0.65;;;25.00;99.90;;;;;;5065729;28;20473;-75
2023/06/21 10:15:04;;;;;;;0.60;0.60;;;25.10;99.90;;;;;;5070777;28;20129;-75
2023/06/21 10:17:31;;;;;;;0.28;0.17;;;25.40;99.90;;;;;;5058314;28;20029;-75
2023/06/21 10:19:59;;;;;;;1.00;0.35;;;25.20;99.90;;;;;;5060318;28;20397;-78
2023/06/21 10:22:27;;;;;;;0.63;0.10;;;25.60;99.10;;;;;;5068732;28;20021;-75
2023/06/21 10:24:55;;;;;;;0.10;0.10;;;25.60;99.50;;;;;;5071628;28;20032;-74
2023/06/21 10:27:21;;;;;;;0.95;0.57;;;25.70;99.90;;;;;;5064567;28;20016;-76
2023/06/21 10:29:57;;;;;;;2.20;1.17;;;25.80;98.90;;;;;;5066612;28;20021;-75
2023/06/21 10:32:30;;;;;;;0.45;0.32;;;25.40;99.50;;;;;;5058347;28;20033;-75
2023/06/21 10:35:17;;;;;;;0.73;0.20;;;25.50;97.80;;;;;;5064902;28;20087;-75
2023/06/21 10:38:08;;;;;;;0.00;0.00;;;25.10;97.40;;;;;;5066441;28;20393;-75
2023/06/21 10:40:35;;;;;;;0.37;0.37;;;25.40;99.20;;;;;;5072737;28;20036;-75
2023/06/21 10:43:02;;;;;;;0.10;0.10;;;25.70;98.40;;;;;;5058786;28;20048;-74
2023/06/21 10:45:30;;;;;;;0.00;0.00;;;26.30;97.90;;;;;;5060196;28;20015;-75
2023/06/21 10:47:57;;;;;;;2.20;0.63;;;26.60;98.00;;;;;;5065554;28;20029;-74
2023/06/21 10:50:24;;;;;;;0.38;0.38;;;26.30;98.70;;;;;;5071105;28;20048;-76
2023/06/21 10:52:58;;;;;;;0.05;0.05;;;26.40;98.00;;;;;;5073269;28;20070;-75
2023/06/21 10:55:24;;;;;;;1.45;0.88;;;27.10;98.40;;;;;;5047339;28;20041;-74
2023/06/21 10:57:54;;;;;;;0.93;0.55;;;26.80;97.40;;;;;;5061503;28;20013;-75
2023/06/21 11:00:22;;;;;;;4.03;1.00;;;26.60;97.80;;;;;;5067534;28;20032;-74
2023/06/21 11:02:49;;;;;;;5.07;1.13;;;26.00;97.80;;;;;;5071296;28;20074;-75
2023/06/21 11:05:20;;;;;;;0.43;0.32;;;25.70;98.60;;;;;;5056425;28;20052;-75
2023/06/21 11:08:05;;;;;;;3.67;1.98;;;25.70;99.60;;;;;;5057499;28;20108;-75
2023/06/21 11:10:36;;;;;;;0.47;0.47;;;25.90;98.40;;;;;;5054107;28;20107;-75
2023/06/21 11:13:02;;;;;;;1.05;1.00;;;26.30;97.90;;;;;;5068286;28;20032;-76
2023/06/21 11:15:30;;;;;;;0.82;0.82;;;26.70;96.70;;;;;;5068145;28;20029;-75
2023/06/21 11:18:01;;;;;;;0.52;0.30;;;26.80;97.10;;;;;;5056681;28;20029;-76
2023/06/21 11:20:27;;;;;;;;;;;26.40;97.40;;;;;;5064836;28;20488;-74
2023/06/21 11:23:00;;;;;;;0.22;0.22;;;26.90;96.30;;;;;;5067758;28;20381;-75
2023/06/21 11:25:27;;;;;;;1.55;0.20;;;27.10;96.30;;;;;;5063876;28;20075;-77
2023/06/21 11:28:26;;;;;;;1.85;1.38;;;26.70;96.00;;;;;;5069444;28;20112;-75
2023/06/21 11:31:02;;;;;;;3.75;0.30;;;26.10;96.80;;;;;;5058276;28;20489;-75
2023/06/21 11:33:32;;;;;;;1.95;1.30;;;26.40;97.30;;;;;;5048845;28;20112;-75
2023/06/21 11:36:06;;;;;;;0.55;0.35;;;26.60;96.00;;;;;;5064148;28;20028;-77
2023/06/21 11:38:34;;;;;;;5.80;1.33;;;27.20;95.80;;;;;;5069507;28;20017;-74
2023/06/21 11:41:00;;;;;;;0.20;0.20;;;26.50;96.20;;;;;;5070361;28;20100;-75
2023/06/21 11:43:26;;;;;;;0.32;0.25;;;27.00;96.70;;;;;;5056539;28;20462;-75
2023/06/21 11:46:00;;;;;;;0.32;0.32;;;26.90;95.30;;;;;;5057792;28;20032;-75
2023/06/21 11:48:27;;;;;;;1.58;1.00;;;27.00;96.60;;;;;;5067284;28;20070;-75
2023/06/21 11:50:55;;;;;;;9.75;1.38;;;27.30;95.40;;;;;;5052406;28;20028;-76
2023/06/21 11:53:39;;;;;;;0.57;0.40;;;27.50;95.40;;;;;;5040693;28;20531;-75
2023/06/21 11:56:05;;;;;;;5.30;0.30;;;27.00;94.30;;;;;;5057819;28;20549;-75
2023/06/21 11:58:31;;;;;;;0.08;0.08;;;27.40;95.20;;;;;;5065614;28;20024;-75
2023/06/21 12:00:57;;;;;;;0.65;0.65;;;28.30;95.30;;;;;;5066068;28;20032;-75
2023/06/21 12:03:27;;;;;;;0.30;0.30;;;27.60;95.20;;;;;;5066649;28;20041;-74
2023/06/21 12:05:55;;;;;;;5.18;0.68;;;27.50;95.80;;;;;;5055303;28;20493;-76
2023/06/21 12:08:25;;;;;;;0.88;0.85;;;27.20;95.00;;;;;;5061047;28;20111;-75
2023/06/21 12:10:51;;;;;;;2.95;1.15;;;27.10;94.80;;;;;;5066041;28;20070;-75
2023/06/21 12:13:18;;;;;;;0.20;0.20;;;27.00;94.10;;;;;;5067053;28;20559;-75
2023/06/21 12:15:52;;;;;;;0.35;0.35;;;27.00;92.70;;;;;;5064633;28;20028;-75
2023/06/21 12:18:18;;;;;;;1.65;0.45;;;27.60;93.50;;;;;;5056969;28;20036;-76
2023/06/21 12:20:44;;;;;;;1.60;0.60;;;28.70;94.60;;;;;;5057594;28;20039;-73
2023/06/21 12:23:10;;;;;;;1.35;0.30;;;29.00;93.60;;;;;;5063294;28;20032;-73
2023/06/21 12:25:51;;;;;;;0.00;0.00;;;29.00;90.80;;;;;;5065874;28;20373;-72
2023/06/21 12:28:19;;;;;;;0.20;0.20;;;28.30;92.30;;;;;;5070230;28;20064;-73
2023/06/21 12:31:00;;;;;;;0.90;0.60;;;29.00;90.80;;;;;;5058303;28;20033;-74
2023/06/21 12:33:30;;;;;;;0.93;0.82;;;28.60;92.70;;;;;;5045108;28;20029;-73
2023/06/21 12:36:20;;;;;;;2.28;0.47;;;28.00;92.00;;;;;;5059342;28;20029;-74
2023/06/21 12:38:54;;;;;;;1.60;0.68;;;28.50;93.00;;;;;;5068160;28;20085;-73
2023/06/21 12:41:22;;;;;;;0.30;0.30;;;28.70;91.00;;;;;;5049515;28;20147;-73
2023/06/21 12:43:50;;;;;;;1.13;0.80;;;28.50;91.70;;;;;;5055141;28;20485;-73
2023/06/21 12:46:17;;;;;;;1.00;0.35;;;28.90;91.00;;;;;;5061774;28;20120;-73
2023/06/21 12:48:50;;;;;;;2.78;0.63;;;28.30;91.80;;;;;;5066516;28;20016;-73
2023/06/21 12:51:30;;;;;;;2.40;1.17;;;28.80;93.30;;;;;;5068419;28;20040;-73
2023/06/21 12:53:58;;;;;;;0.20;0.13;;;29.20;92.20;;;;;;5056326;28;20041;-76